createdAt,value
2023-05-12T00:00:12.726Z,94531.00
2023-05-12T00:01:12.785Z,94533.00
2023-05-12T00:02:12.787Z,94533.00
2023-05-12T00:03:12.900Z,94533.00
2023-05-12T00:04:12.962Z,94535.00
2023-05-12T00:05:12.967Z,94537.00
2023-05-12T00:06:13.016Z,94533.00
2023-05-12T00:07:13.069Z,94533.00
2023-05-12T00:08:13.114Z,94535.00
2023-05-12T00:09:13.192Z,94531.00
2023-05-12T00:10:13.223Z,94533.00
2023-05-12T00:11:13.324Z,94535.00
2023-05-12T00:12:13.371Z,94533.00
2023-05-12T00:13:13.446Z,94529.00
2023-05-12T00:14:13.425Z,94531.00
2023-05-12T00:15:13.540Z,94529.00
2023-05-12T00:16:13.576Z,94529.00
2023-05-12T00:17:13.574Z,94527.00
2023-05-12T00:18:13.666Z,94527.00
2023-05-12T00:19:13.701Z,94529.00
2023-05-12T00:20:13.770Z,94529.00
2023-05-12T00:21:13.791Z,94529.00
2023-05-12T00:22:13.835Z,94531.00
2023-05-12T00:23:13.916Z,94529.00
2023-05-12T00:24:13.947Z,94531.00
2023-05-12T00:25:14.030Z,94531.00
2023-05-12T00:26:14.057Z,94533.00
2023-05-12T00:27:14.129Z,94533.00
2023-05-12T00:28:14.160Z,94535.00
2023-05-12T00:29:14.204Z,94537.00
2023-05-12T00:30:14.312Z,94535.00
2023-05-12T00:31:14.323Z,94535.00
2023-05-12T00:32:14.420Z,94535.00
2023-05-12T00:33:14.489Z,94537.00
2023-05-12T00:34:14.531Z,94537.00
2023-05-12T00:35:14.587Z,94537.00
2023-05-12T00:36:14.596Z,94539.00
2023-05-12T00:37:14.641Z,94539.00
2023-05-12T00:38:14.760Z,94537.00
2023-05-12T00:39:14.769Z,94531.00
2023-05-12T00:40:14.837Z,94531.00
2023-05-12T00:41:14.871Z,94529.00
2023-05-12T00:42:14.954Z,94527.00
2023-05-12T00:43:14.990Z,94527.00
2023-05-12T00:44:15.063Z,94527.00
2023-05-12T00:45:15.164Z,94527.00
2023-05-12T00:46:15.230Z,94523.00
2023-05-12T00:47:15.236Z,94525.00
2023-05-12T00:48:15.300Z,94527.00
2023-05-12T00:49:15.340Z,94527.00
2023-05-12T00:50:15.374Z,94527.00
2023-05-12T00:51:15.458Z,94527.00
2023-05-12T00:52:15.483Z,94525.00
2023-05-12T00:53:15.562Z,94523.00
2023-05-12T00:54:15.648Z,94523.00
2023-05-12T00:55:15.706Z,94523.00
2023-05-12T00:56:15.768Z,94521.00
2023-05-12T00:57:15.804Z,94519.00
2023-05-12T00:58:15.881Z,94521.00
2023-05-12T00:59:15.931Z,94519.00
2023-05-12T01:00:16.012Z,94517.00
2023-05-12T01:01:16.106Z,94517.00
2023-05-12T01:02:16.173Z,94515.00
2023-05-12T01:03:16.224Z,94515.00
2023-05-12T01:04:16.305Z,94517.00
2023-05-12T01:05:16.289Z,94519.00
2023-05-12T01:06:16.343Z,94515.00
2023-05-12T01:07:16.407Z,94515.00
2023-05-12T01:08:16.458Z,94517.00
2023-05-12T01:09:16.517Z,94513.00
2023-05-12T01:10:16.616Z,94511.00
2023-05-12T01:11:16.611Z,94509.00
2023-05-12T01:12:16.689Z,94511.00
2023-05-12T01:13:16.780Z,94511.00
2023-05-12T01:14:16.836Z,94511.00
2023-05-12T01:15:17.002Z,94513.00
2023-05-12T01:16:16.948Z,94513.00
2023-05-12T01:17:17.052Z,94511.00
2023-05-12T01:18:17.111Z,94511.00
2023-05-12T01:19:17.221Z,94511.00
2023-05-12T01:20:17.357Z,94509.00
2023-05-12T01:21:17.205Z,94513.00
2023-05-12T01:22:17.383Z,94511.00
2023-05-12T01:23:17.309Z,94511.00
2023-05-12T01:24:17.391Z,94513.00
2023-05-12T01:25:17.494Z,94511.00
2023-05-12T01:26:17.558Z,94513.00
2023-05-12T01:27:17.618Z,94513.00
2023-05-12T01:28:17.653Z,94511.00
2023-05-12T01:29:17.733Z,94509.00
2023-05-12T01:30:18.033Z,94509.00
2023-05-12T01:31:20.246Z,94509.00
2023-05-12T01:32:17.855Z,94509.00
2023-05-12T01:33:17.858Z,94507.00
2023-05-12T01:34:17.821Z,94509.00
2023-05-12T01:35:17.806Z,94507.00
2023-05-12T01:36:17.859Z,94509.00
2023-05-12T01:37:17.820Z,94507.00
2023-05-12T01:38:17.800Z,94507.00
2023-05-12T01:39:17.800Z,94507.00
2023-05-12T01:40:18.092Z,94509.00
2023-05-12T01:41:17.810Z,94509.00
2023-05-12T01:42:17.772Z,94509.00
2023-05-12T01:43:17.770Z,94511.00
2023-05-12T01:44:17.756Z,94511.00
2023-05-12T01:45:17.769Z,94509.00
2023-05-12T01:46:17.813Z,94511.00
2023-05-12T01:47:17.717Z,94513.00
2023-05-12T01:48:17.735Z,94513.00
2023-05-12T01:49:17.686Z,94515.00
2023-05-12T01:50:17.842Z,94513.00
2023-05-12T01:51:17.704Z,94513.00
2023-05-12T01:52:17.701Z,94513.00
2023-05-12T01:53:17.732Z,94515.00
2023-05-12T01:54:17.681Z,94515.00
2023-05-12T01:55:17.699Z,94517.00
2023-05-12T01:56:17.681Z,94517.00
2023-05-12T01:57:17.697Z,94517.00
2023-05-12T01:58:17.709Z,94519.00
2023-05-12T01:59:17.717Z,94517.00
2023-05-12T02:00:18.058Z,94517.00
2023-05-12T02:01:17.686Z,94517.00
2023-05-12T02:02:17.733Z,94519.00
2023-05-12T02:03:17.718Z,94519.00
2023-05-12T02:04:17.714Z,94517.00
2023-05-12T02:05:17.691Z,94521.00
2023-05-12T02:06:17.771Z,94519.00
2023-05-12T02:07:17.776Z,94521.00
2023-05-12T02:08:17.838Z,94519.00
2023-05-12T02:09:17.877Z,94521.00
2023-05-12T02:10:18.166Z,94521.00
2023-05-12T02:11:18.009Z,94521.00
2023-05-12T02:12:18.037Z,94521.00
2023-05-12T02:13:18.126Z,94521.00
2023-05-12T02:14:18.167Z,94521.00
2023-05-12T02:15:18.224Z,94525.00
2023-05-12T02:16:18.291Z,94521.00
2023-05-12T02:17:18.365Z,94523.00
2023-05-12T02:18:18.389Z,94523.00
2023-05-12T02:19:18.408Z,94525.00
2023-05-12T02:20:18.718Z,94527.00
2023-05-12T02:21:18.543Z,94527.00
2023-05-12T02:22:18.558Z,94527.00
2023-05-12T02:23:18.624Z,94527.00
2023-05-12T02:24:18.643Z,94525.00
2023-05-12T02:25:18.709Z,94525.00
2023-05-12T02:26:18.742Z,94525.00
2023-05-12T02:27:18.778Z,94523.00
2023-05-12T02:28:18.770Z,94527.00
2023-05-12T02:29:18.887Z,94525.00
2023-05-12T02:30:19.044Z,94525.00
2023-05-12T02:31:19.042Z,94525.00
2023-05-12T02:32:19.016Z,94523.00
2023-05-12T02:33:19.056Z,94523.00
2023-05-12T02:34:19.110Z,94523.00
2023-05-12T02:35:19.204Z,94521.00
2023-05-12T02:36:19.215Z,94521.00
2023-05-12T02:37:19.233Z,94521.00
2023-05-12T02:38:19.261Z,94523.00
2023-05-12T02:39:19.333Z,94521.00
2023-05-12T02:40:19.451Z,94521.00
2023-05-12T02:41:19.403Z,94521.00
2023-05-12T02:42:19.450Z,94521.00
2023-05-12T02:43:19.460Z,94521.00
2023-05-12T02:44:19.510Z,94521.00
2023-05-12T02:45:19.561Z,94519.00
2023-05-12T02:46:19.625Z,94521.00
2023-05-12T02:47:19.592Z,94521.00
2023-05-12T02:48:19.642Z,94521.00
2023-05-12T02:49:19.649Z,94519.00
2023-05-12T02:50:19.981Z,94521.00
2023-05-12T02:51:19.671Z,94521.00
2023-05-12T02:52:19.646Z,94519.00
2023-05-12T02:53:19.729Z,94519.00
2023-05-12T02:54:19.747Z,94521.00
2023-05-12T02:55:19.756Z,94517.00
2023-05-12T02:56:19.742Z,94521.00
2023-05-12T02:57:19.758Z,94517.00
2023-05-12T02:58:19.780Z,94517.00
2023-05-12T02:59:19.783Z,94517.00
2023-05-12T03:00:19.917Z,94515.00
2023-05-12T03:01:19.861Z,94513.00
2023-05-12T03:02:19.866Z,94513.00
2023-05-12T03:03:19.871Z,94513.00
2023-05-12T03:04:19.849Z,94513.00
2023-05-12T03:05:19.904Z,94513.00
2023-05-12T03:06:19.858Z,94511.00
2023-05-12T03:07:19.884Z,94509.00
2023-05-12T03:08:19.882Z,94511.00
2023-05-12T03:09:19.859Z,94509.00
2023-05-12T03:10:20.127Z,94509.00
2023-05-12T03:11:19.862Z,94509.00
2023-05-12T03:12:19.889Z,94507.00
2023-05-12T03:13:19.901Z,94509.00
2023-05-12T03:14:19.884Z,94509.00
2023-05-12T03:15:19.911Z,94509.00
2023-05-12T03:16:19.975Z,94509.00
2023-05-12T03:17:19.945Z,94511.00
2023-05-12T03:18:20.017Z,94513.00
2023-05-12T03:19:19.931Z,94509.00
2023-05-12T03:20:20.267Z,94511.00
2023-05-12T03:21:19.952Z,94511.00
2023-05-12T03:22:19.974Z,94511.00
2023-05-12T03:23:19.963Z,94511.00
2023-05-12T03:24:19.965Z,94513.00
2023-05-12T03:25:19.994Z,94511.00
2023-05-12T03:26:19.994Z,94513.00
2023-05-12T03:27:19.974Z,94515.00
2023-05-12T03:28:19.988Z,94517.00
2023-05-12T03:29:20.022Z,94515.00
2023-05-12T03:30:20.276Z,94517.00
2023-05-12T03:31:20.011Z,94519.00
2023-05-12T03:32:20.058Z,94521.00
2023-05-12T03:33:20.010Z,94521.00
2023-05-12T03:34:20.023Z,94523.00
2023-05-12T03:35:19.996Z,94521.00
2023-05-12T03:36:19.994Z,94523.00
2023-05-12T03:37:20.048Z,94517.00
2023-05-12T03:38:19.964Z,94517.00
2023-05-12T03:39:19.969Z,94515.00
2023-05-12T03:40:20.111Z,94513.00
2023-05-12T03:41:19.974Z,94513.00
2023-05-12T03:42:19.947Z,94513.00
2023-05-12T03:43:20.091Z,94513.00
2023-05-12T03:44:19.957Z,94517.00
2023-05-12T03:45:19.966Z,94519.00
2023-05-12T03:46:20.058Z,94521.00
2023-05-12T03:47:20.078Z,94519.00
2023-05-12T03:48:20.030Z,94513.00
2023-05-12T03:49:19.998Z,94511.00
2023-05-12T03:50:20.154Z,94511.00
2023-05-12T03:51:19.951Z,94511.00
2023-05-12T03:52:19.947Z,94511.00
2023-05-12T03:53:20.013Z,94513.00
2023-05-12T03:54:19.977Z,94513.00
2023-05-12T03:55:19.965Z,94511.00
2023-05-12T03:56:19.970Z,94511.00
2023-05-12T03:57:19.998Z,94513.00
2023-05-12T03:58:19.972Z,94513.00
2023-05-12T03:59:20.002Z,94511.00
2023-05-12T04:00:20.274Z,94513.00
2023-05-12T04:01:20.022Z,94509.00
2023-05-12T04:02:20.036Z,94509.00
2023-05-12T04:03:20.115Z,94509.00
2023-05-12T04:04:19.990Z,94511.00
2023-05-12T04:05:19.998Z,94513.00
2023-05-12T04:06:20.011Z,94513.00
2023-05-12T04:07:20.009Z,94513.00
2023-05-12T04:08:20.026Z,94515.00
2023-05-12T04:09:20.027Z,94511.00
2023-05-12T04:10:20.320Z,94511.00
2023-05-12T04:11:19.979Z,94513.00
2023-05-12T04:12:20.050Z,94513.00
2023-05-12T04:13:20.006Z,94511.00
2023-05-12T04:14:26.495Z,94513.00
2023-05-12T04:15:21.026Z,94515.00
2023-05-12T04:16:20.079Z,94519.00
2023-05-12T04:17:20.056Z,94517.00
2023-05-12T04:18:20.079Z,94521.00
2023-05-12T04:19:19.996Z,94521.00
2023-05-12T04:20:20.179Z,94521.00
2023-05-12T04:21:20.005Z,94519.00
2023-05-12T04:22:20.006Z,94519.00
2023-05-12T04:23:20.020Z,94521.00
2023-05-12T04:24:19.960Z,94517.00
2023-05-12T04:25:19.969Z,94521.00
2023-05-12T04:26:19.977Z,94521.00
2023-05-12T04:27:19.959Z,94521.00
2023-05-12T04:28:19.945Z,94519.00
2023-05-12T04:29:19.965Z,94525.00
2023-05-12T04:30:20.226Z,94523.00
2023-05-12T04:31:20.029Z,94525.00
2023-05-12T04:32:20.104Z,94527.00
2023-05-12T04:33:19.930Z,94529.00
2023-05-12T04:34:19.970Z,94527.00
2023-05-12T04:35:19.911Z,94531.00
2023-05-12T04:36:19.928Z,94529.00
2023-05-12T04:37:19.951Z,94531.00
2023-05-12T04:38:19.967Z,94529.00
2023-05-12T04:39:20.025Z,94529.00
2023-05-12T04:40:20.265Z,94531.00
2023-05-12T04:41:19.988Z,94529.00
2023-05-12T04:42:20.012Z,94529.00
2023-05-12T04:44:20.007Z,94529.00
2023-05-12T04:45:20.324Z,94533.00
2023-05-12T04:46:20.055Z,94531.00
2023-05-12T04:47:20.061Z,94531.00
2023-05-12T04:48:19.981Z,94533.00
2023-05-12T04:49:19.987Z,94533.00
2023-05-12T04:50:19.964Z,94533.00
2023-05-12T04:51:20.039Z,94533.00
2023-05-12T04:52:20.013Z,94535.00
2023-05-12T04:53:19.963Z,94535.00
2023-05-12T04:54:19.972Z,94537.00
2023-05-12T04:55:20.095Z,94537.00
2023-05-12T04:56:19.976Z,94537.00
2023-05-12T04:57:19.994Z,94537.00
2023-05-12T04:58:19.950Z,94541.00
2023-05-12T04:59:19.992Z,94539.00
2023-05-12T05:00:19.968Z,94541.00
2023-05-12T05:01:19.954Z,94543.00
2023-05-12T05:02:19.932Z,94543.00
2023-05-12T05:03:20.123Z,94545.00
2023-05-12T05:04:19.929Z,94545.00
2023-05-12T05:05:20.032Z,94547.00
2023-05-12T05:06:19.906Z,94545.00
2023-05-12T05:07:19.924Z,94547.00
2023-05-12T05:08:19.911Z,94545.00
2023-05-12T05:09:20.132Z,94545.00
2023-05-12T05:10:19.863Z,94543.00
2023-05-12T05:11:19.842Z,94543.00
2023-05-12T05:12:19.865Z,94545.00
2023-05-12T05:13:19.852Z,94547.00
2023-05-12T05:14:19.820Z,94545.00
2023-05-12T05:15:20.126Z,94545.00
2023-05-12T05:16:19.859Z,94547.00
2023-05-12T05:17:19.827Z,94549.00
2023-05-12T05:18:21.690Z,94549.00
2023-05-12T05:19:26.321Z,94545.00
2023-05-12T05:20:20.879Z,94547.00
2023-05-12T05:21:19.810Z,94547.00
2023-05-12T05:22:19.798Z,94547.00
2023-05-12T05:23:19.783Z,94547.00
2023-05-12T05:24:19.827Z,94549.00
2023-05-12T05:25:20.122Z,94551.00
2023-05-12T05:26:19.763Z,94549.00
2023-05-12T05:27:19.732Z,94549.00
2023-05-12T05:28:19.881Z,94549.00
2023-05-12T05:29:19.733Z,94549.00
2023-05-12T05:30:19.788Z,94553.00
2023-05-12T05:31:19.861Z,94551.00
2023-05-12T05:32:19.882Z,94553.00
2023-05-12T05:33:19.951Z,94547.00
2023-05-12T05:34:20.066Z,94547.00
2023-05-12T05:35:20.130Z,94547.00
2023-05-12T05:36:20.082Z,94547.00
2023-05-12T05:37:20.048Z,94545.00
2023-05-12T05:38:20.129Z,94547.00
2023-05-12T05:39:20.196Z,94543.00
2023-05-12T05:40:20.226Z,94543.00
2023-05-12T05:41:21.152Z,94543.00
2023-05-12T05:42:20.390Z,94541.00
2023-05-12T05:43:20.454Z,94545.00
2023-05-12T05:44:20.460Z,94543.00
2023-05-12T05:45:20.894Z,94543.00
2023-05-12T05:46:20.606Z,94541.00
2023-05-12T05:47:20.589Z,94541.00
2023-05-12T05:48:21.197Z,94547.00
2023-05-12T05:49:20.568Z,94545.00
2023-05-12T05:50:20.603Z,94547.00
2023-05-12T05:51:20.650Z,94545.00
2023-05-12T05:52:20.732Z,94545.00
2023-05-12T05:53:20.661Z,94545.00
2023-05-12T05:54:20.729Z,94547.00
2023-05-12T05:55:20.849Z,94547.00
2023-05-12T05:56:21.255Z,94547.00
2023-05-12T05:57:21.210Z,94549.00
2023-05-12T05:58:21.268Z,94549.00
2023-05-12T05:59:20.808Z,94551.00
2023-05-12T06:00:21.185Z,94551.00
2023-05-12T06:01:20.953Z,94551.00
2023-05-12T06:02:21.085Z,94551.00
2023-05-12T06:03:21.135Z,94551.00
2023-05-12T06:04:21.196Z,94551.00
2023-05-12T06:05:21.253Z,94549.00
2023-05-12T06:06:21.117Z,94545.00
2023-05-12T06:07:22.276Z,94547.00
2023-05-12T06:08:21.182Z,94547.00
2023-05-12T06:09:21.159Z,94547.00
2023-05-12T06:10:21.382Z,94547.00
2023-05-12T06:11:21.229Z,94549.00
2023-05-12T06:12:21.178Z,94553.00
2023-05-12T06:13:21.194Z,94553.00
2023-05-12T06:14:21.235Z,94551.00
2023-05-12T06:15:21.466Z,94551.00
2023-05-12T06:16:21.268Z,94549.00
2023-05-12T06:17:21.260Z,94549.00
2023-05-12T06:18:21.250Z,94549.00
2023-05-12T06:19:21.250Z,94549.00
2023-05-12T06:20:21.250Z,94549.00
2023-05-12T06:21:21.327Z,94551.00
2023-05-12T06:22:21.341Z,94547.00
2023-05-12T06:23:21.332Z,94549.00
2023-05-12T06:24:21.343Z,94551.00
2023-05-12T06:25:21.649Z,94551.00
2023-05-12T06:26:21.373Z,94551.00
2023-05-12T06:27:21.408Z,94551.00
2023-05-12T06:28:21.493Z,94551.00
2023-05-12T06:29:21.483Z,94549.00
2023-05-12T06:30:21.566Z,94551.00
2023-05-12T06:31:21.551Z,94551.00
2023-05-12T06:32:21.672Z,94551.00
2023-05-12T06:33:21.658Z,94551.00
2023-05-12T06:34:21.692Z,94547.00
2023-05-12T06:35:21.750Z,94555.00
2023-05-12T06:36:21.733Z,94553.00
2023-05-12T06:37:21.679Z,94553.00
2023-05-12T06:38:21.775Z,94551.00
2023-05-12T06:39:21.763Z,94551.00
2023-05-12T06:40:21.769Z,94553.00
2023-05-12T06:41:21.874Z,94555.00
2023-05-12T06:42:21.877Z,94553.00
2023-05-12T06:43:22.183Z,94555.00
2023-05-12T06:44:21.916Z,94551.00
2023-05-12T06:45:22.261Z,94549.00
2023-05-12T06:46:22.018Z,94551.00
2023-05-12T06:47:22.090Z,94549.00
2023-05-12T06:48:22.055Z,94553.00
2023-05-12T06:49:22.676Z,94553.00
2023-05-12T06:50:22.129Z,94551.00
2023-05-12T06:51:22.177Z,94553.00
2023-05-12T06:52:22.662Z,94551.00
2023-05-12T06:53:24.087Z,94549.00
2023-05-12T06:54:22.216Z,94549.00
2023-05-12T06:55:22.753Z,94549.00
2023-05-12T06:56:22.202Z,94547.00
2023-05-12T06:57:22.187Z,94543.00
2023-05-12T06:58:22.269Z,94543.00
2023-05-12T06:59:22.197Z,94543.00
2023-05-12T07:00:22.227Z,94543.00
2023-05-12T07:01:22.292Z,94545.00
2023-05-12T07:02:22.165Z,94543.00
2023-05-12T07:03:22.250Z,94543.00
2023-05-12T07:04:22.119Z,94541.00
2023-05-12T07:05:22.285Z,94539.00
2023-05-12T07:06:22.141Z,94541.00
2023-05-12T07:07:22.154Z,94543.00
2023-05-12T07:08:22.136Z,94543.00
2023-05-12T07:09:22.094Z,94541.00
2023-05-12T07:10:22.088Z,94543.00
2023-05-12T07:11:22.104Z,94543.00
2023-05-12T07:12:22.191Z,94543.00
2023-05-12T07:13:22.082Z,94543.00
2023-05-12T07:14:22.109Z,94541.00
2023-05-12T07:15:22.264Z,94539.00
2023-05-12T07:16:22.103Z,94537.00
2023-05-12T07:17:22.086Z,94539.00
2023-05-12T07:18:22.089Z,94535.00
2023-05-12T07:19:22.052Z,94533.00
2023-05-12T07:20:22.034Z,94533.00
2023-05-12T07:21:22.030Z,94531.00
2023-05-12T07:22:22.050Z,94535.00
2023-05-12T07:23:22.038Z,94535.00
2023-05-12T07:24:21.999Z,94531.00
2023-05-12T07:25:22.272Z,94529.00
2023-05-12T07:26:21.999Z,94527.00
2023-05-12T07:27:21.999Z,94529.00
2023-05-12T07:28:21.975Z,94529.00
2023-05-12T07:29:22.008Z,94529.00
2023-05-12T07:30:21.987Z,94527.00
2023-05-12T07:31:22.568Z,94531.00
2023-05-12T07:32:22.037Z,94529.00
2023-05-12T07:33:21.921Z,94527.00
2023-05-12T07:34:21.966Z,94527.00
2023-05-12T07:35:22.249Z,94527.00
2023-05-12T07:36:22.177Z,94521.00
2023-05-12T07:37:22.706Z,94519.00
2023-05-12T07:38:22.021Z,94519.00
2023-05-12T07:39:22.067Z,94519.00
2023-05-12T07:40:22.110Z,94517.00
2023-05-12T07:41:22.143Z,94519.00
2023-05-12T07:42:22.196Z,94519.00
2023-05-12T07:43:22.198Z,94515.00
2023-05-12T07:44:22.330Z,94517.00
2023-05-12T07:45:22.322Z,94517.00
2023-05-12T07:46:22.403Z,94513.00
2023-05-12T07:47:22.478Z,94515.00
2023-05-12T07:48:22.501Z,94515.00
2023-05-12T07:49:22.567Z,94515.00
2023-05-12T07:50:22.654Z,94519.00
2023-05-12T07:51:22.684Z,94517.00
2023-05-12T07:52:22.766Z,94519.00
2023-05-12T07:53:22.864Z,94517.00
2023-05-12T07:54:22.981Z,94513.00
2023-05-12T07:55:23.185Z,94511.00
2023-05-12T07:56:23.036Z,94511.00
2023-05-12T07:57:23.108Z,94513.00
2023-05-12T07:58:23.082Z,94511.00
2023-05-12T07:59:23.084Z,94509.00
2023-05-12T08:00:23.503Z,94509.00
2023-05-12T08:01:23.165Z,94509.00
2023-05-12T08:02:23.339Z,94509.00
2023-05-12T08:03:23.310Z,94509.00
2023-05-12T08:04:23.311Z,94506.00
2023-05-12T08:05:23.331Z,94509.00
2023-05-12T08:06:24.935Z,94506.00
2023-05-12T08:07:23.315Z,94506.00
2023-05-12T08:08:23.321Z,94509.00
2023-05-12T08:09:23.400Z,94507.00
2023-05-12T08:10:23.343Z,94507.00
2023-05-12T08:11:23.402Z,94504.00
2023-05-12T08:12:23.414Z,94506.00
2023-05-12T08:13:23.440Z,94506.00
2023-05-12T08:14:23.436Z,94506.00
2023-05-12T08:15:23.466Z,94507.00
2023-05-12T08:16:23.665Z,94506.00
2023-05-12T08:17:23.683Z,94506.00
2023-05-12T08:18:23.645Z,94504.00
2023-05-12T08:19:23.585Z,94506.00
2023-05-12T08:20:23.623Z,94504.00
2023-05-12T08:21:23.653Z,94500.00
2023-05-12T08:22:23.675Z,94502.00
2023-05-12T08:23:23.801Z,94502.00
2023-05-12T08:24:23.766Z,94504.00
2023-05-12T08:25:23.811Z,94500.00
2023-05-12T08:26:24.193Z,94502.00
2023-05-12T08:27:23.825Z,94500.00
2023-05-12T08:28:23.866Z,94496.00
2023-05-12T08:29:23.973Z,94494.00
2023-05-12T08:30:23.971Z,94494.00
2023-05-12T08:31:24.002Z,94496.00
2023-05-12T08:32:24.170Z,94498.00
2023-05-12T08:33:24.069Z,94494.00
2023-05-12T08:34:24.164Z,94498.00
2023-05-12T08:35:24.142Z,94498.00
2023-05-12T08:36:24.186Z,94498.00
2023-05-12T08:37:24.190Z,94500.00
2023-05-12T08:38:24.205Z,94498.00
2023-05-12T08:39:24.223Z,94498.00
2023-05-12T08:40:24.242Z,94496.00
2023-05-12T08:41:24.228Z,94494.00
2023-05-12T08:42:24.230Z,94494.00
2023-05-12T08:43:24.250Z,94494.00
2023-05-12T08:44:24.306Z,94490.00
2023-05-12T08:45:24.346Z,94494.00
2023-05-12T08:46:24.363Z,94494.00
2023-05-12T08:47:24.713Z,94494.00
2023-05-12T08:48:24.443Z,94496.00
2023-05-12T08:49:24.470Z,94494.00
2023-05-12T08:50:24.500Z,94488.00
2023-05-12T08:51:24.525Z,94494.00
2023-05-12T08:52:24.570Z,94494.00
2023-05-12T08:53:24.574Z,94494.00
2023-05-12T08:54:24.548Z,94490.00
2023-05-12T08:55:29.576Z,94490.00
2023-05-12T08:57:24.580Z,94490.00
2023-05-12T08:58:30.617Z,94494.00
2023-05-12T08:59:25.566Z,94492.00
2023-05-12T09:00:24.717Z,94492.00
2023-05-12T09:01:24.585Z,94498.00
2023-05-12T09:02:24.778Z,94494.00
2023-05-12T09:03:24.558Z,94496.00
2023-05-12T09:04:24.658Z,94494.00
2023-05-12T09:05:24.517Z,94494.00
2023-05-12T09:06:24.532Z,94496.00
2023-05-12T09:07:24.555Z,94492.00
2023-05-12T09:08:24.495Z,94494.00
2023-05-12T09:09:24.533Z,94496.00
2023-05-12T09:11:24.533Z,94494.00
2023-05-12T09:12:24.561Z,94494.00
2023-05-12T09:13:24.527Z,94494.00
2023-05-12T09:14:24.533Z,94494.00
2023-05-12T09:15:24.482Z,94492.00
2023-05-12T09:16:24.556Z,94494.00
2023-05-12T09:17:24.524Z,94490.00
2023-05-12T09:18:24.500Z,94494.00
2023-05-12T09:19:24.519Z,94488.00
2023-05-12T09:21:25.486Z,94488.00
2023-05-12T09:22:24.501Z,94488.00
2023-05-12T09:23:24.477Z,94488.00
2023-05-12T09:24:24.450Z,94486.00
2023-05-12T09:25:24.496Z,94486.00
2023-05-12T09:26:24.429Z,94486.00
2023-05-12T09:27:24.451Z,94486.00
2023-05-12T09:28:24.418Z,94490.00
2023-05-12T09:29:31.197Z,94484.00
2023-05-12T09:30:27.227Z,94486.00
2023-05-12T09:31:24.448Z,94486.00
2023-05-12T09:32:24.427Z,94488.00
2023-05-12T09:33:24.399Z,94486.00
2023-05-12T09:34:24.381Z,94488.00
2023-05-12T09:35:24.386Z,94482.00
2023-05-12T09:36:24.521Z,94480.00
2023-05-12T09:37:24.391Z,94478.00
2023-05-12T09:38:24.367Z,94482.00
2023-05-12T09:39:24.378Z,94484.00
2023-05-12T09:40:24.347Z,94482.00
2023-05-12T09:41:24.332Z,94486.00
2023-05-12T09:42:24.349Z,94484.00
2023-05-12T09:43:24.786Z,94486.00
2023-05-12T09:44:24.404Z,94486.00
2023-05-12T09:45:24.312Z,94482.00
2023-05-12T09:46:24.356Z,94484.00
2023-05-12T09:47:24.381Z,94484.00
2023-05-12T09:48:26.844Z,94484.00
2023-05-12T09:49:24.276Z,94482.00
2023-05-12T09:50:24.302Z,94478.00
2023-05-12T09:51:24.282Z,94478.00
2023-05-12T09:52:24.309Z,94482.00
2023-05-12T09:53:24.775Z,94476.00
2023-05-12T09:54:24.343Z,94478.00
2023-05-12T09:55:24.239Z,94480.00
2023-05-12T09:56:24.240Z,94476.00
2023-05-12T09:57:24.222Z,94476.00
2023-05-12T09:58:24.247Z,94478.00
2023-05-12T09:59:24.199Z,94476.00
2023-05-12T10:00:38.453Z,94476.00
2023-05-12T10:01:25.451Z,94474.00
2023-05-12T10:02:24.326Z,94474.00
2023-05-12T10:03:24.289Z,94472.00
2023-05-12T10:04:24.208Z,94472.00
2023-05-12T10:05:24.168Z,94470.00
2023-05-12T10:06:24.175Z,94470.00
2023-05-12T10:07:24.145Z,94464.00
2023-05-12T10:08:24.200Z,94462.00
2023-05-12T10:09:24.158Z,94457.00
2023-05-12T10:10:24.798Z,94462.00
2023-05-12T10:11:24.148Z,94455.00
2023-05-12T10:12:24.132Z,94457.00
2023-05-12T10:13:24.210Z,94457.00
2023-05-12T10:14:24.265Z,94455.00
2023-05-12T10:15:24.290Z,94453.00
2023-05-12T10:16:24.321Z,94453.00
2023-05-12T10:17:24.395Z,94451.00
2023-05-12T10:18:24.372Z,94455.00
2023-05-12T10:19:24.363Z,94455.00
2023-05-12T10:20:24.368Z,94455.00
2023-05-12T10:21:24.411Z,94457.00
2023-05-12T10:22:24.469Z,94457.00
2023-05-12T10:23:24.525Z,94459.00
2023-05-12T10:24:24.560Z,94455.00
2023-05-12T10:25:24.783Z,94455.00
2023-05-12T10:26:24.612Z,94455.00
2023-05-12T10:27:24.563Z,94457.00
2023-05-12T10:28:24.623Z,94457.00
2023-05-12T10:29:24.629Z,94459.00
2023-05-12T10:30:24.679Z,94457.00
2023-05-12T10:31:24.736Z,94457.00
2023-05-12T10:32:24.784Z,94457.00
2023-05-12T10:33:24.855Z,94457.00
2023-05-12T10:34:24.889Z,94457.00
2023-05-12T10:35:24.974Z,94457.00
2023-05-12T10:36:24.954Z,94455.00
2023-05-12T10:37:25.065Z,94453.00
2023-05-12T10:38:25.104Z,94457.00
2023-05-12T10:39:25.102Z,94453.00
2023-05-12T10:40:25.179Z,94459.00
2023-05-12T10:41:25.152Z,94455.00
2023-05-12T10:42:25.203Z,94457.00
2023-05-12T10:43:25.227Z,94455.00
2023-05-12T10:44:25.295Z,94459.00
2023-05-12T10:45:25.770Z,94453.00
2023-05-12T10:46:25.821Z,94457.00
2023-05-12T10:47:25.322Z,94457.00
2023-05-12T10:48:25.306Z,94455.00
2023-05-12T10:49:25.315Z,94447.00
2023-05-12T10:50:25.358Z,94447.00
2023-05-12T10:51:25.346Z,94451.00
2023-05-12T10:52:25.451Z,94447.00
2023-05-12T10:53:28.612Z,94449.00
2023-05-12T10:54:26.447Z,94447.00
2023-05-12T10:55:25.865Z,94445.00
2023-05-12T10:56:25.684Z,94447.00
2023-05-12T10:57:25.531Z,94443.00
2023-05-12T10:58:25.948Z,94445.00
2023-05-12T10:59:25.936Z,94443.00
2023-05-12T11:00:25.995Z,94445.00
2023-05-12T11:01:26.343Z,94443.00
2023-05-12T11:02:26.184Z,94443.00
2023-05-12T11:03:26.176Z,94443.00
2023-05-12T11:04:25.480Z,94439.00
2023-05-12T11:05:25.747Z,94443.00
2023-05-12T11:06:25.692Z,94439.00
2023-05-12T11:07:26.338Z,94439.00
2023-05-12T11:08:26.656Z,94437.00
2023-05-12T11:09:25.465Z,94437.00
2023-05-12T11:10:26.628Z,94437.00
2023-05-12T11:11:25.390Z,94441.00
2023-05-12T11:12:25.336Z,94439.00
2023-05-12T11:13:25.340Z,94437.00
2023-05-12T11:14:25.331Z,94433.00
2023-05-12T11:15:25.375Z,94433.00
2023-05-12T11:16:25.447Z,94437.00
2023-05-12T11:17:25.842Z,94435.00
2023-05-12T11:18:25.546Z,94435.00
2023-05-12T11:19:25.517Z,94435.00
2023-05-12T11:20:26.426Z,94433.00
2023-05-12T11:21:25.558Z,94433.00
2023-05-12T11:22:25.567Z,94435.00
2023-05-12T11:23:25.686Z,94433.00
2023-05-12T11:24:25.716Z,94429.00
2023-05-12T11:25:25.782Z,94425.00
2023-05-12T11:26:25.919Z,94429.00
2023-05-12T11:27:25.907Z,94429.00
2023-05-12T11:28:25.950Z,94427.00
2023-05-12T11:29:25.961Z,94427.00
2023-05-12T11:30:26.046Z,94425.00
2023-05-12T11:31:26.205Z,94423.00
2023-05-12T11:32:26.298Z,94421.00
2023-05-12T11:33:26.156Z,94425.00
2023-05-12T11:34:26.237Z,94421.00
2023-05-12T11:35:26.281Z,94417.00
2023-05-12T11:36:26.313Z,94421.00
2023-05-12T11:37:26.346Z,94421.00
2023-05-12T11:38:26.373Z,94415.00
2023-05-12T11:39:26.403Z,94417.00
2023-05-12T11:40:26.446Z,94415.00
2023-05-12T11:41:26.469Z,94413.00
2023-05-12T11:42:26.531Z,94415.00
2023-05-12T11:43:26.581Z,94419.00
2023-05-12T11:44:26.582Z,94413.00
2023-05-12T11:45:26.650Z,94415.00
2023-05-12T11:46:26.745Z,94415.00
2023-05-12T11:47:26.690Z,94413.00
2023-05-12T11:48:26.708Z,94411.00